sensor_id;sensor_type;location;lat;lon;timestamp;pressure;altitude;pressure_sealevel;temperature;humidity
85119;BME280;75469;47.654;10.494;2024-01-27T00:00:08;93063.03;;;3.60;82.83
85119;BME280;75469;47.654;10.494;2024-01-27T00:02:34;93073.22;;;3.62;82.73
85119;BME280;75469;47.654;10.494;2024-01-27T00:04:59;93080.00;;;3.49;83.86
85119;BME280;75469;47.654;10.494;2024-01-27T00:07:25;93079.88;;;3.54;83.29
85119;BME280;75469;47.654;10.494;2024-01-27T00:09:52;93077.19;;;3.59;83.35
85119;BME280;75469;47.654;10.494;2024-01-27T00:12:18;93068.25;;;3.47;83.40
85119;BME280;75469;47.654;10.494;2024-01-27T00:14:43;93068.59;;;3.40;84.43
85119;BME280;75469;47.654;10.494;2024-01-27T00:17:09;93067.38;;;3.37;84.38
85119;BME280;75469;47.654;10.494;2024-01-27T00:19:35;93064.81;;;3.32;85.30
85119;BME280;75469;47.654;10.494;2024-01-27T00:22:00;93071.59;;;3.33;85.23
85119;BME280;75469;47.654;10.494;2024-01-27T00:24:26;93065.44;;;3.43;84.53
85119;BME280;75469;47.654;10.494;2024-01-27T00:26:52;93068.59;;;3.40;83.70
85119;BME280;75469;47.654;10.494;2024-01-27T00:29:17;93070.81;;;3.33;82.79
85119;BME280;75469;47.654;10.494;2024-01-27T00:31:43;93080.44;;;3.37;82.68
85119;BME280;75469;47.654;10.494;2024-01-27T00:34:08;93067.84;;;3.39;82.11
85119;BME280;75469;47.654;10.494;2024-01-27T00:36:34;93082.56;;;3.35;82.01
85119;BME280;75469;47.654;10.494;2024-01-27T00:39:03;93088.84;;;3.34;82.37
85119;BME280;75469;47.654;10.494;2024-01-27T00:41:28;93089.06;;;3.38;82.11
85119;BME280;75469;47.654;10.494;2024-01-27T00:43:54;93085.09;;;3.40;82.49
85119;BME280;75469;47.654;10.494;2024-01-27T00:46:20;93088.19;;;3.42;82.22
85119;BME280;75469;47.654;10.494;2024-01-27T00:48:45;93086.84;;;3.45;82.24
85119;BME280;75469;47.654;10.494;2024-01-27T00:51:11;93087.59;;;3.46;82.14
85119;BME280;75469;47.654;10.494;2024-01-27T00:53:36;93079.38;;;3.38;82.68
85119;BME280;75469;47.654;10.494;2024-01-27T00:56:02;93086.72;;;3.36;82.09
85119;BME280;75469;47.654;10.494;2024-01-27T00:58:29;93087.22;;;3.38;82.25
85119;BME280;75469;47.654;10.494;2024-01-27T01:00:54;93093.97;;;3.39;82.52
85119;BME280;75469;47.654;10.494;2024-01-27T01:03:20;93087.28;;;3.33;82.89
85119;BME280;75469;47.654;10.494;2024-01-27T01:05:45;93086.72;;;3.36;82.24
85119;BME280;75469;47.654;10.494;2024-01-27T01:08:11;93086.72;;;3.36;81.69
85119;BME280;75469;47.654;10.494;2024-01-27T01:10:36;93085.88;;;3.55;80.11
85119;BME280;75469;47.654;10.494;2024-01-27T01:13:02;93090.47;;;3.30;80.08
85119;BME280;75469;47.654;10.494;2024-01-27T01:15:27;93086.50;;;3.19;80.02
85119;BME280;75469;47.654;10.494;2024-01-27T01:17:54;93089.44;;;3.12;80.09
85119;BME280;75469;47.654;10.494;2024-01-27T01:20:19;93105.44;;;3.11;80.27
85119;BME280;75469;47.654;10.494;2024-01-27T01:22:45;93109.34;;;3.27;79.93
85119;BME280;75469;47.654;10.494;2024-01-27T01:25:10;93111.34;;;3.16;80.32
85119;BME280;75469;47.654;10.494;2024-01-27T01:27:36;93120.34;;;3.10;80.51
85119;BME280;75469;47.654;10.494;2024-01-27T01:30:02;93120.59;;;3.09;80.58
85119;BME280;75469;47.654;10.494;2024-01-27T01:32:27;93124.09;;;3.04;80.81
85119;BME280;75469;47.654;10.494;2024-01-27T01:34:53;93122.72;;;3.07;80.65
85119;BME280;75469;47.654;10.494;2024-01-27T01:37:19;93132.03;;;3.13;80.60
85119;BME280;75469;47.654;10.494;2024-01-27T01:39:45;93124.56;;;3.06;80.44
85119;BME280;75469;47.654;10.494;2024-01-27T01:42:11;93124.34;;;3.03;81.12
85119;BME280;75469;47.654;10.494;2024-01-27T01:44:36;93127.75;;;3.03;80.66
85119;BME280;75469;47.654;10.494;2024-01-27T01:47:02;93127.53;;;3.00;80.68
85119;BME280;75469;47.654;10.494;2024-01-27T01:49:28;93128.31;;;3.00;80.84
85119;BME280;75469;47.654;10.494;2024-01-27T01:51:54;93132.50;;;3.01;80.64
85119;BME280;75469;47.654;10.494;2024-01-27T01:54:20;93126.56;;;2.95;80.68
85119;BME280;75469;47.654;10.494;2024-01-27T01:56:50;93128.31;;;3.00;81.03
85119;BME280;75469;47.654;10.494;2024-01-27T01:59:16;93119.50;;;2.96;81.26
85119;BME280;75469;47.654;10.494;2024-01-27T02:01:42;93119.75;;;2.94;81.16
85119;BME280;75469;47.654;10.494;2024-01-27T02:04:08;93114.25;;;2.96;81.65
85119;BME280;75469;47.654;10.494;2024-01-27T02:06:34;93121.03;;;2.97;81.43
85119;BME280;75469;47.654;10.494;2024-01-27T02:08:59;93119.09;;;2.89;81.20
85119;BME280;75469;47.654;10.494;2024-01-27T02:11:25;93126.13;;;2.88;81.24
85119;BME280;75469;47.654;10.494;2024-01-27T02:13:52;93123.31;;;2.85;81.17
85119;BME280;75469;47.654;10.494;2024-01-27T02:16:18;93133.19;;;2.88;81.56
85119;BME280;75469;47.654;10.494;2024-01-27T02:18:44;93129.81;;;2.87;81.20
85119;BME280;75469;47.654;10.494;2024-01-27T02:21:10;93123.31;;;2.85;81.09
85119;BME280;75469;47.654;10.494;2024-01-27T02:23:36;93124.16;;;2.80;80.80
85119;BME280;75469;47.654;10.494;2024-01-27T02:26:02;93125.00;;;2.75;81.23
85119;BME280;75469;47.654;10.494;2024-01-27T02:28:28;93121.88;;;2.73;81.59
85119;BME280;75469;47.654;10.494;2024-01-27T02:30:57;93117.72;;;2.72;82.03
85119;BME280;75469;47.654;10.494;2024-01-27T02:33:23;93111.50;;;2.68;82.12
85119;BME280;75469;47.654;10.494;2024-01-27T02:35:49;93113.91;;;2.65;82.41
85119;BME280;75469;47.654;10.494;2024-01-27T02:38:15;93115.81;;;2.59;82.47
85119;BME280;75469;47.654;10.494;2024-01-27T02:40:40;93119.31;;;2.49;82.51
85119;BME280;75469;47.654;10.494;2024-01-27T02:43:06;93121.28;;;2.39;82.56
85119;BME280;75469;47.654;10.494;2024-01-27T02:45:33;93120.13;;;2.26;83.02
85119;BME280;75469;47.654;10.494;2024-01-27T02:47:59;93123.34;;;2.18;83.13
85119;BME280;75469;47.654;10.494;2024-01-27T02:50:25;93129.94;;;2.10;83.64
85119;BME280;75469;47.654;10.494;2024-01-27T02:52:51;93125.03;;;2.09;83.50
85119;BME280;75469;47.654;10.494;2024-01-27T02:55:17;93140.19;;;2.06;83.80
85119;BME280;75469;47.654;10.494;2024-01-27T02:57:42;93130.13;;;1.95;83.76
85119;BME280;75469;47.654;10.494;2024-01-27T03:00:08;93135.53;;;1.74;84.41
85119;BME280;75469;47.654;10.494;2024-01-27T03:02:34;93134.34;;;1.62;85.76
85119;BME280;75469;47.654;10.494;2024-01-27T03:05:00;93135.66;;;1.59;85.95
85119;BME280;75469;47.654;10.494;2024-01-27T03:07:26;93140.16;;;1.53;86.31
85119;BME280;75469;47.654;10.494;2024-01-27T03:09:52;93144.88;;;1.51;86.41
85119;BME280;75469;47.654;10.494;2024-01-27T03:12:19;93143.22;;;1.26;86.88
85119;BME280;75469;47.654;10.494;2024-01-27T03:14:44;93154.50;;;1.22;87.39
85119;BME280;75469;47.654;10.494;2024-01-27T03:17:11;93145.91;;;1.21;87.81
85119;BME280;75469;47.654;10.494;2024-01-27T03:19:37;93149.84;;;1.13;87.29
85119;BME280;75469;47.654;10.494;2024-01-27T03:22:03;93157.09;;;1.22;87.60
85119;BME280;75469;47.654;10.494;2024-01-27T03:24:29;93156.25;;;1.31;87.52
85119;BME280;75469;47.654;10.494;2024-01-27T03:26:55;93159.00;;;1.45;87.05
85119;BME280;75469;47.654;10.494;2024-01-27T03:29:21;93160.00;;;1.49;86.89
85119;BME280;75469;47.654;10.494;2024-01-27T03:31:46;93159.41;;;1.63;86.38
85119;BME280;75469;47.654;10.494;2024-01-27T03:34:14;93155.97;;;1.62;85.62
85119;BME280;75469;47.654;10.494;2024-01-27T03:36:41;93160.09;;;1.68;85.64
85119;BME280;75469;47.654;10.494;2024-01-27T03:39:07;93170.25;;;1.75;85.40
85119;BME280;75469;47.654;10.494;2024-01-27T03:41:34;93163.13;;;1.80;85.35
85119;BME280;75469;47.654;10.494;2024-01-27T03:44:00;93165.97;;;1.84;84.91
85119;BME280;75469;47.654;10.494;2024-01-27T03:46:26;93168.41;;;1.75;84.91
85119;BME280;75469;47.654;10.494;2024-01-27T03:48:52;93170.53;;;1.68;84.36
85119;BME280;75469;47.654;10.494;2024-01-27T03:51:23;93178.31;;;1.73;84.59
85119;BME280;75469;47.654;10.494;2024-01-27T03:53:49;93178.34;;;1.68;84.18
85119;BME280;75469;47.654;10.494;2024-01-27T03:56:15;93176.63;;;1.58;85.22
85119;BME280;75469;47.654;10.494;2024-01-27T03:58:41;93174.25;;;1.62;84.99
85119;BME280;75469;47.654;10.494;2024-01-27T04:01:06;93170.88;;;1.56;85.25
85119;BME280;75469;47.654;10.494;2024-01-27T04:03:32;93175.63;;;1.54;85.00
85119;BME280;75469;47.654;10.494;2024-01-27T04:05:58;93166.31;;;1.43;84.84
85119;BME280;75469;47.654;10.494;2024-01-27T04:08:23;93180.19;;;1.39;85.59
85119;BME280;75469;47.654;10.494;2024-01-27T04:10:49;93173.13;;;1.39;85.49
85119;BME280;75469;47.654;10.494;2024-01-27T04:13:15;93164.00;;;1.42;85.40
85119;BME280;75469;47.654;10.494;2024-01-27T04:15:41;93177.38;;;1.30;85.76
85119;BME280;75469;47.654;10.494;2024-01-27T04:18:07;93182.59;;;1.30;85.61
85119;BME280;75469;47.654;10.494;2024-01-27T04:20:37;93181.06;;;1.24;85.78
85119;BME280;75469;47.654;10.494;2024-01-27T04:23:03;93184.69;;;1.28;85.93
85119;BME280;75469;47.654;10.494;2024-01-27T04:25:29;93180.97;;;1.34;86.69
85119;BME280;75469;47.654;10.494;2024-01-27T04:27:55;93194.69;;;1.50;86.41
85119;BME280;75469;47.654;10.494;2024-01-27T04:30:22;93206.38;;;1.57;86.08
85119;BME280;75469;47.654;10.494;2024-01-27T04:32:48;93198.53;;;1.57;85.83
85119;BME280;75469;47.654;10.494;2024-01-27T04:35:15;93203.44;;;1.64;86.00
85119;BME280;75469;47.654;10.494;2024-01-27T04:37:40;93209.09;;;1.71;85.95
85119;BME280;75469;47.654;10.494;2024-01-27T04:40:07;93209.06;;;1.76;86.12
85119;BME280;75469;47.654;10.494;2024-01-27T04:42:39;93205.66;;;1.81;85.88
85119;BME280;75469;47.654;10.494;2024-01-27T04:45:05;93204.09;;;1.80;85.70
85119;BME280;75469;47.654;10.494;2024-01-27T04:47:31;93198.84;;;1.85;85.81
85119;BME280;75469;47.654;10.494;2024-01-27T04:49:57;93208.50;;;1.85;85.41
85119;BME280;75469;47.654;10.494;2024-01-27T04:52:23;93202.75;;;1.82;85.42
85119;BME280;75469;47.654;10.494;2024-01-27T04:54:48;93205.84;;;1.90;85.60
85119;BME280;75469;47.654;10.494;2024-01-27T04:57:14;93205.84;;;1.90;85.70
85119;BME280;75469;47.654;10.494;2024-01-27T04:59:40;93201.13;;;1.92;85.26
85119;BME280;75469;47.654;10.494;2024-01-27T05:02:05;93199.56;;;1.91;85.53
85119;BME280;75469;47.654;10.494;2024-01-27T05:04:32;93199.03;;;1.94;85.49
85119;BME280;75469;47.654;10.494;2024-01-27T05:06:57;93193.25;;;1.97;85.68
85119;BME280;75469;47.654;10.494;2024-01-27T05:09:23;93195.31;;;2.00;85.61
85119;BME280;75469;47.654;10.494;2024-01-27T05:11:48;93206.00;;;1.98;85.69
85119;BME280;75469;47.654;10.494;2024-01-27T05:14:17;93210.75;;;1.96;85.70
85119;BME280;75469;47.654;10.494;2024-01-27T05:16:42;93202.41;;;1.94;85.31
85119;BME280;75469;47.654;10.494;2024-01-27T05:19:08;93211.19;;;2.03;85.40
85119;BME280;75469;47.654;10.494;2024-01-27T05:21:33;93209.47;;;1.94;85.51
85119;BME280;75469;47.654;10.494;2024-01-27T05:23:59;93214.72;;;1.89;85.37
85119;BME280;75469;47.654;10.494;2024-01-27T05:26:24;93218.34;;;1.93;85.90
85119;BME280;75469;47.654;10.494;2024-01-27T05:28:50;93211.28;;;1.93;85.47
85119;BME280;75469;47.654;10.494;2024-01-27T05:31:16;93214.72;;;1.89;85.87
85119;BME280;75469;47.654;10.494;2024-01-27T05:33:42;93221.03;;;1.82;86.40
85119;BME280;75469;47.654;10.494;2024-01-27T05:36:08;93220.75;;;1.84;86.00
85119;BME280;75469;47.654;10.494;2024-01-27T05:38:33;93215.78;;;1.88;85.64
85119;BME280;75469;47.654;10.494;2024-01-27T05:41:02;93215.78;;;1.88;85.57
85119;BME280;75469;47.654;10.494;2024-01-27T05:43:28;93213.50;;;1.81;86.01
85119;BME280;75469;47.654;10.494;2024-01-27T05:45:54;93210.13;;;1.75;85.87
85119;BME280;75469;47.654;10.494;2024-01-27T05:48:20;93212.56;;;1.67;86.19
85119;BME280;75469;47.654;10.494;2024-01-27T05:50:58;93214.94;;;1.63;86.11
85119;BME280;75469;47.654;10.494;2024-01-27T05:53:24;93213.91;;;1.59;86.33
85119;BME280;75469;47.654;10.494;2024-01-27T05:55:50;93225.94;;;1.55;86.43
85119;BME280;75469;47.654;10.494;2024-01-27T05:58:16;93220.97;;;1.53;86.40
85119;BME280;75469;47.654;10.494;2024-01-27T06:00:45;93222.28;;;1.56;86.73
85119;BME280;75469;47.654;10.494;2024-01-27T06:03:11;93238.94;;;1.60;86.69
85119;BME280;75469;47.654;10.494;2024-01-27T06:05:36;93227.47;;;1.56;86.96
85119;BME280;75469;47.654;10.494;2024-01-27T06:08:04;93228.03;;;1.53;87.24
85119;BME280;75469;47.654;10.494;2024-01-27T06:10:30;93238.50;;;1.48;86.91
85119;BME280;75469;47.654;10.494;2024-01-27T06:12:57;93239.22;;;1.53;86.77
85119;BME280;75469;47.654;10.494;2024-01-27T06:15:22;93239.78;;;1.50;86.94
85119;BME280;75469;47.654;10.494;2024-01-27T06:17:48;93231.47;;;1.48;86.40
85119;BME280;75469;47.654;10.494;2024-01-27T06:20:13;93235.38;;;1.46;86.56
85119;BME280;75469;47.654;10.494;2024-01-27T06:22:39;93233.00;;;1.49;86.40
85119;BME280;75469;47.654;10.494;2024-01-27T06:25:04;93230.09;;;1.56;86.64
85119;BME280;75469;47.654;10.494;2024-01-27T06:27:30;93234.28;;;1.57;86.27
85119;BME280;75469;47.654;10.494;2024-01-27T06:29:56;93234.50;;;1.60;85.98
85119;BME280;75469;47.654;10.494;2024-01-27T06:32:21;93247.81;;;1.59;85.79
85119;BME280;75469;47.654;10.494;2024-01-27T06:34:47;93243.63;;;1.63;85.95
85119;BME280;75469;47.654;10.494;2024-01-27T06:37:13;93242.78;;;1.68;85.91
85119;BME280;75469;47.654;10.494;2024-01-27T06:39:38;93245.13;;;1.69;85.39
85119;BME280;75469;47.654;10.494;2024-01-27T06:42:04;93237.63;;;1.63;85.48
85119;BME280;75469;47.654;10.494;2024-01-27T06:44:29;93245.19;;;1.59;85.81
85119;BME280;75469;47.654;10.494;2024-01-27T06:46:56;93242.03;;;1.62;85.76
85119;BME280;75469;47.654;10.494;2024-01-27T06:49:21;93241.06;;;1.53;85.60
85119;BME280;75469;47.654;10.494;2024-01-27T06:51:47;93243.91;;;1.56;85.71
85119;BME280;75469;47.654;10.494;2024-01-27T06:54:12;93242.38;;;1.50;85.80
85119;BME280;75469;47.654;10.494;2024-01-27T06:56:38;93243.03;;;1.32;86.41
85119;BME280;75469;47.654;10.494;2024-01-27T06:59:03;93247.78;;;1.20;87.60
85119;BME280;75469;47.654;10.494;2024-01-27T07:01:29;93242.47;;;1.35;87.61
85119;BME280;75469;47.654;10.494;2024-01-27T07:03:54;93233.44;;;1.22;86.93
85119;BME280;75469;47.654;10.494;2024-01-27T07:06:20;93235.75;;;1.29;87.11
85119;BME280;75469;47.654;10.494;2024-01-27T07:08:46;93236.19;;;1.41;86.80
85119;BME280;75469;47.654;10.494;2024-01-27T07:11:11;93237.47;;;1.44;86.42
85119;BME280;75469;47.654;10.494;2024-01-27T07:13:37;93234.44;;;1.31;86.32
85119;BME280;75469;47.654;10.494;2024-01-27T07:16:04;93235.47;;;1.35;87.01
85119;BME280;75469;47.654;10.494;2024-01-27T07:18:30;93234.38;;;1.42;86.50
85119;BME280;75469;47.654;10.494;2024-01-27T07:20:55;93239.06;;;1.45;86.49
85119;BME280;75469;47.654;10.494;2024-01-27T07:23:21;93240.56;;;1.51;86.92
85119;BME280;75469;47.654;10.494;2024-01-27T07:25:46;93247.03;;;1.58;86.83
85119;BME280;75469;47.654;10.494;2024-01-27T07:28:12;93248.84;;;1.63;86.73
85119;BME280;75469;47.654;10.494;2024-01-27T07:30:38;93252.91;;;1.74;86.80
85119;BME280;75469;47.654;10.494;2024-01-27T07:33:04;93247.94;;;1.78;85.79
85119;BME280;75469;47.654;10.494;2024-01-27T07:35:29;93252.31;;;1.82;85.82
85119;BME280;75469;47.654;10.494;2024-01-27T07:37:57;93258.06;;;1.85;85.27
85119;BME280;75469;47.654;10.494;2024-01-27T07:40:22;93268.00;;;1.77;85.90
85119;BME280;75469;47.654;10.494;2024-01-27T07:42:48;93276.34;;;1.79;85.56
85119;BME280;75469;47.654;10.494;2024-01-27T07:45:13;93278.97;;;1.79;85.67
85119;BME280;75469;47.654;10.494;2024-01-27T07:47:39;93275.50;;;1.50;85.90
85119;BME280;75469;47.654;10.494;2024-01-27T07:50:05;93266.44;;;1.42;87.04
85119;BME280;75469;47.654;10.494;2024-01-27T07:52:30;93271.13;;;1.45;86.78
85119;BME280;75469;47.654;10.494;2024-01-27T07:54:56;93275.94;;;1.62;86.59
85119;BME280;75469;47.654;10.494;2024-01-27T07:57:22;93278.28;;;1.64;86.12
85119;BME280;75469;47.654;10.494;2024-01-27T07:59:47;93272.25;;;1.68;86.00
85119;BME280;75469;47.654;10.494;2024-01-27T08:02:13;93272.34;;;1.58;86.00
85119;BME280;75469;47.654;10.494;2024-01-27T08:04:40;93279.06;;;1.64;86.31
85119;BME280;75469;47.654;10.494;2024-01-27T08:07:06;93279.44;;;1.47;86.54
85119;BME280;75469;47.654;10.494;2024-01-27T08:09:36;93284.03;;;1.66;86.72
85119;BME280;75469;47.654;10.494;2024-01-27T08:12:03;93286.34;;;1.67;86.46
85119;BME280;75469;47.654;10.494;2024-01-27T08:14:29;93285.59;;;1.62;85.83
85119;BME280;75469;47.654;10.494;2024-01-27T08:16:58;93283.44;;;1.74;86.05
85119;BME280;75469;47.654;10.494;2024-01-27T08:19:24;93289.56;;;1.93;85.54
85119;BME280;75469;47.654;10.494;2024-01-27T08:21:49;93288.84;;;1.82;84.92
85119;BME280;75469;47.654;10.494;2024-01-27T08:24:15;93293.50;;;1.91;84.57
85119;BME280;75469;47.654;10.494;2024-01-27T08:26:41;93296.22;;;2.10;83.00
85119;BME280;75469;47.654;10.494;2024-01-27T08:29:10;93298.06;;;2.04;83.52
85119;BME280;75469;47.654;10.494;2024-01-27T08:31:36;93295.44;;;2.09;83.90
85119;BME280;75469;47.654;10.494;2024-01-27T08:34:04;93298.38;;;2.02;84.17
85119;BME280;75469;47.654;10.494;2024-01-27T08:36:29;93300.72;;;2.33;83.16
85119;BME280;75469;47.654;10.494;2024-01-27T08:39:05;93288.97;;;2.31;83.91
85119;BME280;75469;47.654;10.494;2024-01-27T08:41:55;93296.56;;;2.32;83.69
85119;BME280;75469;47.654;10.494;2024-01-27T08:44:20;93290.84;;;2.25;83.59
85119;BME280;75469;47.654;10.494;2024-01-27T08:46:46;93288.22;;;2.30;84.11
85119;BME280;75469;47.654;10.494;2024-01-27T08:49:11;93291.06;;;2.28;83.84
85119;BME280;75469;47.654;10.494;2024-01-27T08:51:37;93297.31;;;2.33;83.34
85119;BME280;75469;47.654;10.494;2024-01-27T08:54:02;93292.28;;;2.41;83.09
85119;BME280;75469;47.654;10.494;2024-01-27T08:56:28;93292.84;;;2.38;82.77
85119;BME280;75469;47.654;10.494;2024-01-27T08:58:53;93284.50;;;2.36;83.47
85119;BME280;75469;47.654;10.494;2024-01-27T09:01:19;93285.69;;;2.73;82.70
85119;BME280;75469;47.654;10.494;2024-01-27T09:03:45;93290.44;;;3.57;81.29
85119;BME280;75469;47.654;10.494;2024-01-27T09:06:11;93283.94;;;4.39;79.52
85119;BME280;75469;47.654;10.494;2024-01-27T09:08:37;93283.81;;;4.90;77.62
85119;BME280;75469;47.654;10.494;2024-01-27T09:11:03;93299.53;;;5.32;76.40
85119;BME280;75469;47.654;10.494;2024-01-27T09:13:28;93294.31;;;5.18;75.16
85119;BME280;75469;47.654;10.494;2024-01-27T09:15:56;93286.03;;;4.83;73.99
85119;BME280;75469;47.654;10.494;2024-01-27T09:18:22;93294.78;;;4.32;75.05
85119;BME280;75469;47.654;10.494;2024-01-27T09:20:47;93299.31;;;3.94;76.15
85119;BME280;75469;47.654;10.494;2024-01-27T09:23:13;93303.84;;;3.69;76.93
85119;BME280;75469;47.654;10.494;2024-01-27T09:25:39;93304.66;;;3.88;78.05
85119;BME280;75469;47.654;10.494;2024-01-27T09:28:05;93303.47;;;4.13;77.86
85119;BME280;75469;47.654;10.494;2024-01-27T09:30:30;93293.31;;;4.26;77.40
85119;BME280;75469;47.654;10.494;2024-01-27T09:32:56;93288.03;;;4.12;77.26
85119;BME280;75469;47.654;10.494;2024-01-27T09:35:21;93285.63;;;4.62;76.35
85119;BME280;75469;47.654;10.494;2024-01-27T09:37:47;93292.56;;;4.86;73.44
85119;BME280;75469;47.654;10.494;2024-01-27T09:40:16;93285.13;;;5.57;74.49
85119;BME280;75469;47.654;10.494;2024-01-27T09:42:50;93270.78;;;6.44;72.16
85119;BME280;75469;47.654;10.494;2024-01-27T09:45:17;93260.19;;;6.04;71.05
85119;BME280;75469;47.654;10.494;2024-01-27T09:47:43;93273.44;;;5.63;72.86
85119;BME280;75469;47.654;10.494;2024-01-27T09:50:11;93278.88;;;5.66;70.58
85119;BME280;75469;47.654;10.494;2024-01-27T09:52:37;93267.28;;;5.17;73.83
85119;BME280;75469;47.654;10.494;2024-01-27T09:55:03;93267.59;;;5.30;71.89
85119;BME280;75469;47.654;10.494;2024-01-27T09:57:29;93271.28;;;4.87;73.61
85119;BME280;75469;47.654;10.494;2024-01-27T09:59:56;93278.34;;;5.14;71.66
85119;BME280;75469;47.654;10.494;2024-01-27T10:02:24;93272.75;;;4.79;73.87
85119;BME280;75469;47.654;10.494;2024-01-27T10:04:50;93296.25;;;4.85;74.18
85119;BME280;75469;47.654;10.494;2024-01-27T10:07:16;93292.41;;;4.63;75.93
85119;BME280;75469;47.654;10.494;2024-01-27T10:09:42;93290.38;;;4.46;77.12
85119;BME280;75469;47.654;10.494;2024-01-27T10:12:09;93288.00;;;4.31;78.03
85119;BME280;75469;47.654;10.494;2024-01-27T10:14:42;93287.06;;;4.41;77.85
85119;BME280;75469;47.654;10.494;2024-01-27T10:17:22;93275.16;;;4.16;77.98
85119;BME280;75469;47.654;10.494;2024-01-27T10:20:04;93273.47;;;4.06;78.75
85119;BME280;75469;47.654;10.494;2024-01-27T10:22:40;93277.50;;;4.17;78.23
85119;BME280;75469;47.654;10.494;2024-01-27T10:25:06;93280.34;;;4.02;78.73
85119;BME280;75469;47.654;10.494;2024-01-27T10:27:32;93281.75;;;4.13;78.11
85119;BME280;75469;47.654;10.494;2024-01-27T10:29:57;93298.75;;;3.97;78.56
85119;BME280;75469;47.654;10.494;2024-01-27T10:32:23;93282.31;;;4.10;78.31
85119;BME280;75469;47.654;10.494;2024-01-27T10:35:05;93288.47;;;4.19;78.78
85119;BME280;75469;47.654;10.494;2024-01-27T10:37:34;93279.91;;;4.13;78.68
85119;BME280;75469;47.654;10.494;2024-01-27T10:40:09;93278.97;;;4.23;79.23
85119;BME280;75469;47.654;10.494;2024-01-27T10:42:36;93266.25;;;4.91;77.94
85119;BME280;75469;47.654;10.494;2024-01-27T10:45:03;93274.53;;;5.48;75.80
85119;BME280;75469;47.654;10.494;2024-01-27T10:47:30;93276.50;;;5.79;73.93
85119;BME280;75469;47.654;10.494;2024-01-27T10:49:57;93279.28;;;6.18;73.95
85119;BME280;75469;47.654;10.494;2024-01-27T10:52:24;93273.53;;;6.16;74.77
85119;BME280;75469;47.654;10.494;2024-01-27T10:55:00;93267.94;;;6.32;72.43
85119;BME280;75469;47.654;10.494;2024-01-27T10:57:27;93270.41;;;6.59;73.30
85119;BME280;75469;47.654;10.494;2024-01-27T10:59:55;93273.44;;;7.24;74.42
85119;BME280;75469;47.654;10.494;2024-01-27T11:02:21;93280.00;;;7.52;74.67
85119;BME280;75469;47.654;10.494;2024-01-27T11:04:51;93274.06;;;7.29;72.18
85119;BME280;75469;47.654;10.494;2024-01-27T11:07:20;93280.81;;;7.04;71.38
85119;BME280;75469;47.654;10.494;2024-01-27T11:09:49;93268.97;;;6.84;70.94
85119;BME280;75469;47.654;10.494;2024-01-27T11:12:16;93275.00;;;6.54;70.97
85119;BME280;75469;47.654;10.494;2024-01-27T11:14:42;93270.28;;;6.11;71.10
85119;BME280;75469;47.654;10.494;2024-01-27T11:17:08;93270.41;;;5.92;71.77
85119;BME280;75469;47.654;10.494;2024-01-27T11:19:34;93265.56;;;5.99;70.70
85119;BME280;75469;47.654;10.494;2024-01-27T11:22:03;93260.03;;;5.87;70.60
85119;BME280;75469;47.654;10.494;2024-01-27T11:24:29;93261.16;;;5.72;72.19
85119;BME280;75469;47.654;10.494;2024-01-27T11:29:27;93260.50;;;5.89;70.02
85119;BME280;75469;47.654;10.494;2024-01-27T11:31:55;93261.63;;;5.74;71.47
85119;BME280;75469;47.654;10.494;2024-01-27T11:34:24;93264.84;;;5.71;72.62
85119;BME280;75469;47.654;10.494;2024-01-27T11:36:49;93268.13;;;5.77;70.62
85119;BME280;75469;47.654;10.494;2024-01-27T11:39:27;93278.91;;;6.34;70.58
85119;BME280;75469;47.654;10.494;2024-01-27T11:42:10;93280.22;;;6.45;68.75
85119;BME280;75469;47.654;10.494;2024-01-27T11:44:40;93282.19;;;6.39;71.89
85119;BME280;75469;47.654;10.494;2024-01-27T11:47:18;93274.13;;;6.13;74.48
85119;BME280;75469;47.654;10.494;2024-01-27T11:49:51;93270.63;;;6.18;74.46
85119;BME280;75469;47.654;10.494;2024-01-27T11:52:21;93268.13;;;6.13;72.81
85119;BME280;75469;47.654;10.494;2024-01-27T11:54:56;93264.22;;;5.88;73.17
85119;BME280;75469;47.654;10.494;2024-01-27T11:57:23;93258.97;;;6.10;72.30
85119;BME280;75469;47.654;10.494;2024-01-27T11:59:50;93259.50;;;5.62;73.64
85119;BME280;75469;47.654;10.494;2024-01-27T12:02:16;93262.44;;;5.61;74.08
85119;BME280;75469;47.654;10.494;2024-01-27T12:04:42;93257.44;;;5.50;73.84
85119;BME280;75469;47.654;10.494;2024-01-27T12:07:08;93262.69;;;5.50;74.54
85119;BME280;75469;47.654;10.494;2024-01-27T12:09:35;93258.63;;;5.31;73.33
85119;BME280;75469;47.654;10.494;2024-01-27T12:12:02;93252.53;;;5.21;75.35
85119;BME280;75469;47.654;10.494;2024-01-27T12:14:47;93260.22;;;5.18;75.11
85119;BME280;75469;47.654;10.494;2024-01-27T12:17:15;93255.06;;;5.26;76.44
85119;BME280;75469;47.654;10.494;2024-01-27T12:19:52;93256.78;;;5.17;75.78
85119;BME280;75469;47.654;10.494;2024-01-27T12:22:22;93257.19;;;5.24;75.83
85119;BME280;75469;47.654;10.494;2024-01-27T12:24:48;93251.22;;;5.46;76.37
85119;BME280;75469;47.654;10.494;2024-01-27T12:27:14;93242.34;;;5.56;75.87
85119;BME280;75469;47.654;10.494;2024-01-27T12:29:42;93245.00;;;5.42;75.87
85119;BME280;75469;47.654;10.494;2024-01-27T12:32:08;93239.84;;;5.37;76.62
85119;BME280;75469;47.654;10.494;2024-01-27T12:34:40;93237.28;;;5.60;77.75
85119;BME280;75469;47.654;10.494;2024-01-27T12:37:08;93241.03;;;5.67;77.74
85119;BME280;75469;47.654;10.494;2024-01-27T12:39:33;93251.53;;;5.17;77.44
85119;BME280;75469;47.654;10.494;2024-01-27T12:41:59;93240.59;;;5.01;78.81
85119;BME280;75469;47.654;10.494;2024-01-27T12:44:25;93238.97;;;4.92;77.84
85119;BME280;75469;47.654;10.494;2024-01-27T12:46:50;93226.91;;;4.77;77.34
85119;BME280;75469;47.654;10.494;2024-01-27T12:49:16;93235.06;;;4.89;77.80
85119;BME280;75469;47.654;10.494;2024-01-27T12:51:41;93227.78;;;5.00;78.23
85119;BME280;75469;47.654;10.494;2024-01-27T12:54:07;93221.91;;;5.17;77.10
85119;BME280;75469;47.654;10.494;2024-01-27T12:56:33;93215.28;;;5.33;78.63
85119;BME280;75469;47.654;10.494;2024-01-27T12:59:00;93214.75;;;5.09;77.59